Mc Clave, Colorado
Current Conditions -  °F | °C
As of 3:53 PM on Wednesday 26 Nov 2014 (Local Time) from KLAA Reporting Station
Clear Clear  
Wind Chill: 44°   Ceiling: Unl
Heat Index: 44°   Visibility: 10mi
Dew Point: 22°   Wind: 3mph
Humidity: 42%   Direction: 100°E
Pressure: 30.26"   Gusts: NA
Location:  38.0584°N, 102.928°W
Report Text: KLAA 262253Z AUTO 10003KT 10SM CLR 07/M06 A3026 RMK AO2 SLP256 T00671056
Loading
Personal Weather Stations






























Interactive Weather Map New forecast layout! Learn more

10-Day Weather Forecast

Advertisements
Track Severe Weather on mobile